createdAt,value
2022-12-08T00:01:40.328Z,1.80
2022-12-08T00:04:07.483Z,1.70
2022-12-08T00:06:54.229Z,1.70
2022-12-08T00:09:24.582Z,1.70
2022-12-08T00:11:58.491Z,1.70
2022-12-08T00:14:26.544Z,1.70
2022-12-08T00:16:54.318Z,1.70
2022-12-08T00:22:03.174Z,1.70
2022-12-08T00:24:30.729Z,1.70
2022-12-08T00:26:57.725Z,1.70
2022-12-08T00:29:24.705Z,1.70
2022-12-08T00:31:51.786Z,1.70
2022-12-08T00:34:18.942Z,1.70
2022-12-08T00:36:45.910Z,1.70
2022-12-08T00:39:13.178Z,1.70
2022-12-08T00:41:58.983Z,1.70
2022-12-08T00:44:26.067Z,1.70
2022-12-08T00:46:53.160Z,1.70
2022-12-08T00:49:20.182Z,1.70
2022-12-08T00:51:47.141Z,1.70
2022-12-08T00:54:14.105Z,1.70
2022-12-08T00:56:41.483Z,1.70
2022-12-08T00:59:08.501Z,1.70
2022-12-08T01:04:17.534Z,1.70
2022-12-08T01:06:44.583Z,1.70
2022-12-08T01:09:11.585Z,1.70
2022-12-08T01:11:38.568Z,1.70
2022-12-08T01:14:05.549Z,1.70
2022-12-08T01:16:33.227Z,1.70
2022-12-08T01:19:00.377Z,1.70
2022-12-08T01:21:27.438Z,1.70
2022-12-08T01:23:54.781Z,1.70
2022-12-08T01:26:21.828Z,1.70
2022-12-08T01:28:48.836Z,1.70
2022-12-08T01:31:18.421Z,1.70
2022-12-08T01:33:45.515Z,1.70
2022-12-08T01:36:32.793Z,1.70
2022-12-08T01:39:00.265Z,1.70
2022-12-08T01:41:28.240Z,1.70
2022-12-08T01:43:57.438Z,1.70
2022-12-08T01:46:24.586Z,1.70
2022-12-08T01:48:51.792Z,1.70
2022-12-08T01:51:18.826Z,1.70
2022-12-08T01:53:45.792Z,1.70
2022-12-08T01:56:14.875Z,1.70
2022-12-08T01:58:43.428Z,1.70
2022-12-08T02:01:10.693Z,1.70
2022-12-08T02:03:41.222Z,1.70
2022-12-08T02:06:08.528Z,1.70
2022-12-08T02:08:36.130Z,1.60
2022-12-08T02:11:04.985Z,1.70
2022-12-08T02:13:32.645Z,1.60
2022-12-08T02:15:59.694Z,1.60
2022-12-08T02:18:26.669Z,1.60
2022-12-08T02:20:56.251Z,1.60
2022-12-08T02:23:25.198Z,1.60
2022-12-08T02:25:55.377Z,1.60
2022-12-08T02:28:42.331Z,1.60
2022-12-08T02:31:42.035Z,1.60
2022-12-08T02:34:09.009Z,1.60
2022-12-08T02:36:57.345Z,1.50
2022-12-08T02:39:28.749Z,1.50
2022-12-08T02:41:56.126Z,1.50
2022-12-08T02:44:32.292Z,1.50
2022-12-08T02:47:01.185Z,1.50
2022-12-08T02:49:31.434Z,1.50
2022-12-08T02:52:07.625Z,1.50
2022-12-08T02:54:34.644Z,1.50
2022-12-08T02:57:12.735Z,1.50
2022-12-08T02:59:51.009Z,1.50
2022-12-08T03:02:35.393Z,1.50
2022-12-08T03:05:02.442Z,1.50
2022-12-08T03:07:36.896Z,1.50
2022-12-08T03:10:07.262Z,1.50
2022-12-08T03:12:36.256Z,1.50
2022-12-08T03:15:06.291Z,1.50
2022-12-08T03:17:33.249Z,1.50
2022-12-08T03:20:01.951Z,1.50
2022-12-08T03:22:29.308Z,1.50
2022-12-08T03:24:56.281Z,1.50
2022-12-08T03:27:26.928Z,1.50
2022-12-08T03:29:54.527Z,1.40
2022-12-08T03:32:29.155Z,1.40
2022-12-08T03:34:56.416Z,1.40
2022-12-08T03:37:23.430Z,1.40
2022-12-08T03:39:50.398Z,1.40
2022-12-08T03:42:17.356Z,1.40
2022-12-08T03:44:44.316Z,1.30
2022-12-08T03:47:11.356Z,1.30
2022-12-08T03:49:38.311Z,1.30
2022-12-08T03:52:05.276Z,1.30
2022-12-08T03:54:32.321Z,1.30
2022-12-08T03:56:59.275Z,1.30
2022-12-08T03:59:26.261Z,1.30
2022-12-08T04:01:53.285Z,1.30
2022-12-08T04:04:20.337Z,1.30
2022-12-08T04:06:47.471Z,1.20
2022-12-08T04:09:14.446Z,1.20
2022-12-08T04:11:42.352Z,1.20
2022-12-08T04:14:09.317Z,1.10
2022-12-08T04:16:36.395Z,1.20
2022-12-08T04:19:03.507Z,1.20
2022-12-08T04:21:30.547Z,1.20
2022-12-08T04:24:01.017Z,1.20
2022-12-08T04:26:28.657Z,1.10
2022-12-08T04:28:55.652Z,1.10
2022-12-08T04:31:22.661Z,1.10
2022-12-08T04:33:49.753Z,1.10
2022-12-08T04:36:16.920Z,1.10
2022-12-08T04:38:43.882Z,1.10
2022-12-08T04:41:10.937Z,1.10
2022-12-08T04:43:37.890Z,1.20
2022-12-08T04:46:08.310Z,1.20
2022-12-08T04:48:36.648Z,1.20
2022-12-08T04:51:03.635Z,1.20
2022-12-08T04:53:30.665Z,1.20
2022-12-08T04:55:57.676Z,1.20
2022-12-08T04:58:24.657Z,1.20
2022-12-08T05:00:51.781Z,1.20
2022-12-08T05:03:22.515Z,1.20
2022-12-08T05:05:53.833Z,1.20
2022-12-08T05:08:20.956Z,1.20
2022-12-08T05:10:47.968Z,1.20
2022-12-08T05:13:14.915Z,1.20
2022-12-08T05:15:41.882Z,1.20
2022-12-08T05:18:08.847Z,1.20
2022-12-08T05:20:35.874Z,1.20
2022-12-08T05:23:02.908Z,1.20
2022-12-08T05:25:29.882Z,1.20
2022-12-08T05:28:17.667Z,1.20
2022-12-08T05:30:43.845Z,1.20
2022-12-08T05:33:10.838Z,1.20
2022-12-08T05:35:37.895Z,1.20
2022-12-08T05:38:05.216Z,1.20
2022-12-08T05:40:32.256Z,1.20
2022-12-08T05:42:59.270Z,1.20
2022-12-08T05:45:26.310Z,1.20
2022-12-08T05:47:53.603Z,1.20
2022-12-08T05:50:20.676Z,1.20
2022-12-08T05:52:47.660Z,1.20
2022-12-08T05:55:14.650Z,1.20
2022-12-08T05:57:41.626Z,1.20
2022-12-08T06:00:08.772Z,1.20
2022-12-08T06:02:41.359Z,1.20
2022-12-08T06:05:08.476Z,1.20
2022-12-08T06:07:35.445Z,1.20
2022-12-08T06:10:02.927Z,1.20
2022-12-08T06:12:30.202Z,1.20
2022-12-08T06:14:57.192Z,1.20
2022-12-08T06:17:24.242Z,1.30
2022-12-08T06:19:51.222Z,1.30
2022-12-08T06:22:18.248Z,1.20
2022-12-08T06:24:45.226Z,1.30
2022-12-08T06:27:12.245Z,1.20
2022-12-08T06:29:39.617Z,1.30
2022-12-08T06:32:06.982Z,1.30
2022-12-08T06:34:34.035Z,1.30
2022-12-08T06:37:01.001Z,1.30
2022-12-08T06:39:28.029Z,1.20
2022-12-08T06:44:54.619Z,1.30
2022-12-08T06:47:26.069Z,1.20
2022-12-08T06:49:53.365Z,1.20
2022-12-08T06:52:20.341Z,1.20
2022-12-08T06:54:47.337Z,1.20
2022-12-08T06:57:14.355Z,1.20
2022-12-08T06:59:41.376Z,1.20
2022-12-08T07:02:08.984Z,1.20
2022-12-08T07:04:36.116Z,1.20
2022-12-08T07:07:03.167Z,1.20
2022-12-08T07:09:30.189Z,1.30
2022-12-08T07:11:57.195Z,1.30
2022-12-08T07:14:24.858Z,1.20
2022-12-08T07:16:52.165Z,1.20
2022-12-08T07:19:19.377Z,1.30
2022-12-08T07:21:46.359Z,1.30
2022-12-08T07:24:13.311Z,1.30
2022-12-08T07:26:40.565Z,1.30
2022-12-08T07:29:07.805Z,1.30
2022-12-08T07:31:34.785Z,1.40
2022-12-08T07:34:01.797Z,1.40
2022-12-08T07:36:28.799Z,1.40
2022-12-08T07:38:56.631Z,1.50
2022-12-08T07:41:24.855Z,1.50
2022-12-08T07:43:53.414Z,1.50
2022-12-08T07:46:21.087Z,1.50
2022-12-08T07:48:48.079Z,1.50
2022-12-08T07:51:15.427Z,1.50
2022-12-08T07:53:45.286Z,1.60
2022-12-08T07:56:14.676Z,1.60
2022-12-08T07:58:45.025Z,1.60
2022-12-08T08:01:22.325Z,1.70
2022-12-08T08:03:50.359Z,1.70
2022-12-08T08:06:17.414Z,1.70
2022-12-08T08:08:44.425Z,1.70
2022-12-08T08:11:18.986Z,1.80
2022-12-08T08:13:47.715Z,1.80
2022-12-08T08:16:14.830Z,1.80
2022-12-08T08:18:41.933Z,1.80
2022-12-08T08:21:43.086Z,1.80
2022-12-08T08:23:57.059Z,1.80
2022-12-08T08:26:24.049Z,1.80
2022-12-08T08:28:51.048Z,1.90
2022-12-08T08:31:18.074Z,1.90
2022-12-08T08:33:45.150Z,1.90
2022-12-08T08:36:12.255Z,1.90
2022-12-08T08:38:40.071Z,2.00
2022-12-08T08:41:07.665Z,2.00
2022-12-08T08:43:38.426Z,2.00
2022-12-08T08:46:06.627Z,2.10
2022-12-08T08:48:34.165Z,2.10
2022-12-08T08:51:07.306Z,2.10
2022-12-08T08:53:34.606Z,2.20
2022-12-08T08:56:03.068Z,2.20
2022-12-08T08:58:30.159Z,2.20
2022-12-08T09:00:57.160Z,2.20
2022-12-08T09:03:24.240Z,2.30
2022-12-08T09:05:51.496Z,2.30
2022-12-08T09:08:19.037Z,2.30
2022-12-08T09:10:46.111Z,2.40
2022-12-08T09:13:13.087Z,2.40
2022-12-08T09:15:40.193Z,2.50
2022-12-08T09:18:07.217Z,2.50
2022-12-08T09:20:34.732Z,2.50
2022-12-08T09:23:01.845Z,2.50
2022-12-08T09:25:28.867Z,2.60
2022-12-08T09:27:55.906Z,2.60
2022-12-08T09:30:23.023Z,2.60
2022-12-08T09:32:50.078Z,2.60
2022-12-08T09:35:17.053Z,2.70
2022-12-08T09:37:44.031Z,2.70
2022-12-08T09:40:11.552Z,2.70
2022-12-08T09:42:42.706Z,2.70
2022-12-08T09:45:13.021Z,2.80
2022-12-08T09:47:40.926Z,2.80
2022-12-08T09:50:10.913Z,2.80
2022-12-08T09:52:41.989Z,2.90
2022-12-08T09:55:12.200Z,2.90
2022-12-08T09:57:39.218Z,2.90
2022-12-08T10:00:06.706Z,3.00
2022-12-08T10:02:33.998Z,3.00
2022-12-08T10:05:01.120Z,3.00
2022-12-08T10:07:31.976Z,2.90
2022-12-08T10:10:14.188Z,3.00
2022-12-08T10:12:50.971Z,3.00
2022-12-08T10:15:33.928Z,3.00
2022-12-08T10:18:01.615Z,3.00
2022-12-08T10:20:38.846Z,2.90
2022-12-08T10:23:10.601Z,2.90
2022-12-08T10:33:05.530Z,2.90
2022-12-08T10:35:45.843Z,2.90
2022-12-08T10:41:40.578Z,3.00
2022-12-08T10:44:08.476Z,3.00
2022-12-08T10:46:35.504Z,3.00
2022-12-08T10:49:05.570Z,2.90
2022-12-08T10:51:36.737Z,2.90
2022-12-08T10:54:05.967Z,2.90
2022-12-08T10:56:32.959Z,2.90
2022-12-08T10:59:06.421Z,2.90
2022-12-08T11:01:34.722Z,2.90
2022-12-08T11:04:02.405Z,3.00
2022-12-08T11:06:29.361Z,3.00
2022-12-08T11:08:57.262Z,3.00
2022-12-08T11:11:38.245Z,3.00
2022-12-08T11:14:06.457Z,3.00
2022-12-08T11:16:33.518Z,3.10
2022-12-08T11:19:00.985Z,3.10
2022-12-08T11:21:31.319Z,3.10
2022-12-08T11:23:58.358Z,3.10
2022-12-08T11:26:32.381Z,3.20
2022-12-08T11:28:59.915Z,3.30
2022-12-08T11:31:34.032Z,3.30
2022-12-08T11:34:01.808Z,3.40
2022-12-08T11:36:29.453Z,3.40
2022-12-08T11:38:57.345Z,3.30
2022-12-08T11:41:26.455Z,3.40
2022-12-08T11:43:59.597Z,3.40
2022-12-08T11:46:53.374Z,3.50
2022-12-08T11:49:20.664Z,3.50
2022-12-08T11:51:53.151Z,3.50
2022-12-08T11:54:23.092Z,3.50
2022-12-08T11:56:51.582Z,3.50
2022-12-08T11:59:35.169Z,3.60
2022-12-08T12:02:02.763Z,3.60
2022-12-08T12:04:38.422Z,3.60
2022-12-08T12:07:09.261Z,3.60
2022-12-08T12:09:44.306Z,3.60
2022-12-08T12:12:16.811Z,3.60
2022-12-08T12:15:02.813Z,3.60
2022-12-08T12:17:32.593Z,3.60
2022-12-08T12:20:00.430Z,3.60
2022-12-08T12:22:27.769Z,3.60
2022-12-08T12:24:54.774Z,3.60
2022-12-08T12:27:28.177Z,3.60
2022-12-08T12:29:56.824Z,3.60
2022-12-08T12:32:23.796Z,3.60
2022-12-08T12:34:52.159Z,3.60
2022-12-08T12:37:38.348Z,3.50
2022-12-08T12:40:16.118Z,3.50
2022-12-08T12:42:46.414Z,3.50
2022-12-08T12:45:16.508Z,3.40
2022-12-08T12:47:44.997Z,3.40
2022-12-08T12:50:12.630Z,3.40
2022-12-08T12:52:39.703Z,3.40
2022-12-08T12:55:10.198Z,3.30
2022-12-08T12:57:37.996Z,3.30
2022-12-08T13:00:04.936Z,3.30
2022-12-08T13:02:32.450Z,3.40
2022-12-08T13:05:02.657Z,3.40
2022-12-08T13:07:34.161Z,3.30
2022-12-08T13:10:21.415Z,3.30
2022-12-08T13:13:01.238Z,3.40
2022-12-08T13:15:28.370Z,3.40
2022-12-08T13:17:55.511Z,3.40
2022-12-08T13:20:23.225Z,3.50
2022-12-08T13:22:58.319Z,3.50
2022-12-08T13:25:40.597Z,3.50
2022-12-08T13:28:17.460Z,3.60
2022-12-08T13:30:48.984Z,3.50
2022-12-08T13:33:18.995Z,3.50
2022-12-08T13:35:47.857Z,3.50
2022-12-08T13:38:19.266Z,3.60
2022-12-08T13:40:46.220Z,3.60
2022-12-08T13:43:22.425Z,3.60
2022-12-08T13:46:48.717Z,3.60
2022-12-08T13:49:59.186Z,3.60
2022-12-08T13:57:23.889Z,3.50
2022-12-08T13:59:50.889Z,3.40
2022-12-08T14:02:19.177Z,3.40
2022-12-08T14:05:16.814Z,3.40
2022-12-08T14:07:34.147Z,3.40
2022-12-08T14:10:03.392Z,3.40
2022-12-08T14:12:30.407Z,3.40
2022-12-08T14:15:03.764Z,3.40
2022-12-08T14:17:33.798Z,3.40
2022-12-08T14:20:02.015Z,3.40
2022-12-08T14:22:33.347Z,3.40
2022-12-08T14:25:00.628Z,3.40
2022-12-08T14:27:27.693Z,3.40
2022-12-08T14:30:01.677Z,3.30
2022-12-08T14:32:37.791Z,3.30
2022-12-08T14:35:08.287Z,3.30
2022-12-08T14:37:39.184Z,3.20
2022-12-08T14:40:26.333Z,3.20
2022-12-08T14:43:13.659Z,3.20
2022-12-08T14:45:40.619Z,3.20
2022-12-08T14:48:25.228Z,3.20
2022-12-08T14:50:55.318Z,3.20
2022-12-08T14:53:22.341Z,3.20
2022-12-08T14:55:49.368Z,3.20
2022-12-08T14:58:29.202Z,3.20
2022-12-08T15:00:58.279Z,3.20
2022-12-08T15:03:26.022Z,3.10
2022-12-08T15:05:53.369Z,3.10
2022-12-08T15:08:20.695Z,3.10
2022-12-08T15:10:48.177Z,3.10
2022-12-08T15:13:16.274Z,3.00
2022-12-08T15:15:46.482Z,3.00
2022-12-08T15:18:17.591Z,3.00
2022-12-08T15:20:45.790Z,3.00
2022-12-08T15:23:25.501Z,3.00
2022-12-08T15:25:52.619Z,3.00
2022-12-08T15:28:22.049Z,3.00
2022-12-08T15:30:51.173Z,2.90
2022-12-08T15:33:18.292Z,2.90
2022-12-08T15:35:45.287Z,2.90
2022-12-08T15:38:25.612Z,2.90
2022-12-08T15:40:53.169Z,2.90
2022-12-08T15:43:20.208Z,2.90
2022-12-08T15:45:57.781Z,2.90
2022-12-08T15:48:29.325Z,2.90
2022-12-08T15:50:56.631Z,2.80
2022-12-08T15:53:23.617Z,2.80
2022-12-08T15:56:18.823Z,2.80
2022-12-08T15:58:55.166Z,2.80
2022-12-08T16:01:23.481Z,2.70
2022-12-08T16:07:19.796Z,2.60
2022-12-08T16:09:32.062Z,2.60
2022-12-08T16:12:18.104Z,2.60
2022-12-08T16:17:32.199Z,2.60
2022-12-08T16:19:59.637Z,2.50
2022-12-08T16:25:19.412Z,2.50
2022-12-08T16:30:34.471Z,2.50
2022-12-08T16:33:01.434Z,2.50
2022-12-08T16:35:28.525Z,2.50
2022-12-08T16:37:55.528Z,2.50
2022-12-08T16:40:22.497Z,2.50
2022-12-08T16:42:50.170Z,2.50
2022-12-08T16:45:17.375Z,2.50
2022-12-08T16:47:45.223Z,2.40
2022-12-08T16:50:13.421Z,2.40
2022-12-08T16:52:40.409Z,2.40
2022-12-08T16:55:08.617Z,2.40
2022-12-08T16:57:35.655Z,2.40
2022-12-08T17:00:02.963Z,2.40
2022-12-08T17:02:30.124Z,2.40
2022-12-08T17:04:57.170Z,2.40
2022-12-08T17:07:24.221Z,2.30
2022-12-08T17:09:51.182Z,2.30
2022-12-08T17:12:18.361Z,2.30
2022-12-08T17:14:45.388Z,2.30
2022-12-08T17:17:12.359Z,2.20
2022-12-08T17:19:39.340Z,2.20
2022-12-08T17:22:06.485Z,2.20
2022-12-08T17:24:33.526Z,2.20
2022-12-08T17:27:04.435Z,2.10
2022-12-08T17:29:40.569Z,2.20
2022-12-08T17:32:07.716Z,2.10
2022-12-08T17:34:36.353Z,2.10
2022-12-08T17:37:03.454Z,2.00
2022-12-08T17:39:30.718Z,2.00
2022-12-08T17:41:57.704Z,2.00
2022-12-08T17:44:28.202Z,2.00
2022-12-08T17:46:57.788Z,1.90
2022-12-08T17:49:28.116Z,1.90
2022-12-08T17:51:58.168Z,1.90
2022-12-08T17:54:30.077Z,1.80
2022-12-08T17:56:58.648Z,1.80
2022-12-08T17:59:28.590Z,1.80
2022-12-08T18:02:02.620Z,1.80
2022-12-08T18:04:29.858Z,1.70
2022-12-08T18:07:03.797Z,1.70
2022-12-08T18:09:32.192Z,1.60
2022-12-08T18:12:06.029Z,1.60
2022-12-08T18:14:33.345Z,1.60
2022-12-08T18:17:00.450Z,1.60
2022-12-08T18:19:27.806Z,1.60
2022-12-08T18:21:54.876Z,1.60
2022-12-08T18:24:23.117Z,1.60
2022-12-08T18:26:51.965Z,1.60
2022-12-08T18:29:22.142Z,1.60
2022-12-08T18:31:49.347Z,1.50
2022-12-08T18:34:21.404Z,1.50
2022-12-08T18:36:48.630Z,1.50
2022-12-08T18:39:23.107Z,1.50
2022-12-08T18:41:52.976Z,1.50
2022-12-08T18:44:20.222Z,1.50
2022-12-08T18:46:47.397Z,1.40
2022-12-08T18:49:15.817Z,1.40
2022-12-08T18:51:42.969Z,1.40
2022-12-08T18:54:10.375Z,1.40
2022-12-08T18:56:37.386Z,1.30
2022-12-08T18:59:05.327Z,1.30
2022-12-08T19:01:32.973Z,1.20
2022-12-08T19:06:47.583Z,1.20
2022-12-08T19:09:15.679Z,1.10
2022-12-08T19:11:42.704Z,1.10
2022-12-08T19:14:09.988Z,1.10
2022-12-08T19:16:37.242Z,1.10
2022-12-08T19:19:04.425Z,1.00
2022-12-08T19:21:31.701Z,1.00
2022-12-08T19:23:59.810Z,1.00
2022-12-08T19:26:27.157Z,0.90
2022-12-08T19:28:54.234Z,0.90
2022-12-08T19:31:21.352Z,0.90
2022-12-08T19:33:48.369Z,0.90
2022-12-08T19:36:16.406Z,0.90
2022-12-08T19:39:03.504Z,0.80
2022-12-08T19:41:49.289Z,0.80
2022-12-08T19:44:35.650Z,0.80
2022-12-08T19:47:03.356Z,0.80
2022-12-08T19:49:30.357Z,0.80
2022-12-08T19:51:57.406Z,0.80
2022-12-08T19:54:24.469Z,0.70
2022-12-08T19:56:51.453Z,0.70
2022-12-08T19:59:19.166Z,0.70
2022-12-08T20:01:48.041Z,0.60
2022-12-08T20:04:15.364Z,0.60
2022-12-08T20:06:42.711Z,0.60
2022-12-08T20:09:10.367Z,0.60
2022-12-08T20:11:37.754Z,0.50
2022-12-08T20:14:04.759Z,0.40
2022-12-08T20:16:31.889Z,0.40
2022-12-08T20:19:00.084Z,0.40
2022-12-08T20:21:27.168Z,0.40
2022-12-08T20:23:54.189Z,0.40
2022-12-08T20:26:21.562Z,0.40
2022-12-08T20:28:48.625Z,0.40
2022-12-08T20:31:16.996Z,0.40
2022-12-08T20:33:43.996Z,0.40
2022-12-08T20:36:11.382Z,0.30
2022-12-08T20:38:38.355Z,0.30
2022-12-08T20:41:07.512Z,0.30
2022-12-08T20:43:34.549Z,0.20
2022-12-08T20:46:08.151Z,0.20
2022-12-08T20:48:35.324Z,0.20
2022-12-08T20:51:02.370Z,0.20
2022-12-08T20:53:29.562Z,0.20
2022-12-08T20:55:56.563Z,0.20
2022-12-08T20:58:23.648Z,0.20
2022-12-08T21:00:50.887Z,0.10
2022-12-08T21:03:18.685Z,0.10
2022-12-08T21:05:49.684Z,0.10
2022-12-08T21:08:16.922Z,0.10
2022-12-08T21:10:44.469Z,0.10
2022-12-08T21:13:11.576Z,0.00
2022-12-08T21:15:38.734Z,0.00
2022-12-08T21:18:05.856Z,0.00
2022-12-08T21:20:33.002Z,0.00
2022-12-08T21:22:59.982Z,0.00
2022-12-08T21:25:26.973Z,0.00
2022-12-08T21:27:54.075Z,0.00
2022-12-08T21:30:21.224Z,0.00
2022-12-08T21:32:48.432Z,-0.10
2022-12-08T21:35:15.503Z,-0.10
2022-12-08T21:37:42.592Z,-0.10
2022-12-08T21:40:10.150Z,-0.10
2022-12-08T21:42:43.556Z,-0.10
2022-12-08T21:45:15.098Z,-0.10
2022-12-08T21:47:42.359Z,-0.20
2022-12-08T21:50:10.265Z,-0.20
2022-12-08T21:52:41.191Z,-0.10
2022-12-08T21:55:08.532Z,-0.10
2022-12-08T21:57:35.651Z,-0.10
2022-12-08T22:00:03.306Z,-0.10
2022-12-08T22:02:31.490Z,-0.20
2022-12-08T22:04:58.806Z,-0.10
2022-12-08T22:07:26.008Z,-0.20
2022-12-08T22:09:53.258Z,-0.20
2022-12-08T22:12:20.310Z,-0.10
2022-12-08T22:14:49.902Z,-0.20
2022-12-08T22:17:17.325Z,-0.20
2022-12-08T22:19:44.653Z,-0.20
2022-12-08T22:22:11.734Z,-0.20
2022-12-08T22:24:39.016Z,-0.20
2022-12-08T22:27:06.013Z,-0.20
2022-12-08T22:29:33.145Z,-0.10
2022-12-08T22:32:00.203Z,-0.10
2022-12-08T22:34:27.298Z,-0.20
2022-12-08T22:36:54.354Z,-0.10
2022-12-08T22:39:21.311Z,-0.20
2022-12-08T22:41:48.491Z,-0.10
2022-12-08T22:44:16.328Z,-0.10
2022-12-08T22:46:43.526Z,-0.10
2022-12-08T22:49:10.604Z,-0.10
2022-12-08T22:51:37.706Z,-0.10
2022-12-08T22:54:05.483Z,-0.20
2022-12-08T22:56:32.676Z,-0.20
2022-12-08T22:58:59.891Z,-0.20
2022-12-08T23:01:29.059Z,-0.20
2022-12-08T23:03:56.666Z,-0.20
2022-12-08T23:06:24.628Z,-0.20
2022-12-08T23:08:52.285Z,-0.20
2022-12-08T23:11:19.533Z,-0.20
2022-12-08T23:13:46.671Z,-0.20
2022-12-08T23:16:13.825Z,-0.30
2022-12-08T23:18:41.278Z,-0.30
2022-12-08T23:21:10.679Z,-0.30
2022-12-08T23:23:37.724Z,-0.30
2022-12-08T23:26:04.907Z,-0.30
2022-12-08T23:28:31.999Z,-0.30
2022-12-08T23:30:58.968Z,-0.30
2022-12-08T23:33:25.988Z,-0.30
2022-12-08T23:35:56.975Z,-0.40
2022-12-08T23:38:24.428Z,-0.40
2022-12-08T23:40:51.816Z,-0.40
2022-12-08T23:43:19.210Z,-0.40
2022-12-08T23:45:47.068Z,-0.40
2022-12-08T23:48:14.135Z,-0.40
2022-12-08T23:50:41.107Z,-0.40
2022-12-08T23:53:08.092Z,-0.30
2022-12-08T23:55:35.293Z,-0.30
2022-12-08T23:58:02.402Z,-0.30
